Time;durP1;ratioP1;P1;durP2;ratioP2;P2;SDS_P1;SDS_P2;PMS_P1;PMS_P2;Temp;Humidity;BMP_temperature;BMP_pressure;BME280_temperature;BME280_humidity;BME280_pressure;Samples;Min_cycle;Max_cycle;Signal;HPM_P1;HPM_P2
2022/09/26 00:02:22;;;;;;;8.00;7.00;;;12.70;85.10;;;11.32;100.00;95451.22;4973658;28;20413;-67
2022/09/26 00:04:49;;;;;;;8.57;6.78;;;12.80;85.10;;;11.34;100.00;95459.69;4996412;28;20060;-67
2022/09/26 00:07:14;;;;;;;8.65;7.25;;;12.80;85.10;;;11.33;100.00;95455.44;4999560;28;20045;-67
2022/09/26 00:09:40;;;;;;;8.88;7.47;;;12.70;85.10;;;11.32;100.00;95459.09;4984087;28;20505;-67
2022/09/26 00:12:06;;;;;;;10.43;7.88;;;12.70;85.30;;;11.30;100.00;95458.47;4958071;28;20062;-67
2022/09/26 00:14:32;;;;;;;8.20;7.35;;;12.70;85.60;;;11.32;100.00;95459.09;5016698;28;20028;-67
2022/09/26 00:16:58;;;;;;;8.77;7.75;;;12.70;85.40;;;11.32;100.00;95453.84;4955091;28;20058;-68
2022/09/26 00:19:23;;;;;;;10.52;7.78;;;12.70;85.40;;;11.31;100.00;95458.25;4968242;28;20092;-67
2022/09/26 00:21:49;;;;;;;9.93;7.95;;;12.70;85.40;;;11.34;100.00;95459.69;5006082;28;20496;-67
2022/09/26 00:24:15;;;;;;;8.80;7.90;;;12.80;85.40;;;11.33;100.00;95455.44;5028728;28;20032;-67
2022/09/26 00:26:41;;;;;;;9.63;8.05;;;12.70;85.50;;;11.33;100.00;95444.91;5036321;28;20430;-67
2022/09/26 00:29:09;;;;;;;9.30;8.30;;;12.80;85.60;;;11.33;100.00;95444.91;4997473;28;20063;-67
2022/09/26 00:31:41;;;;;;;9.65;8.38;;;12.70;85.40;;;11.33;100.00;95447.56;4992427;28;20391;-67
2022/09/26 00:34:07;;;;;;;9.73;8.55;;;12.70;85.50;;;11.35;100.00;95448.16;4961667;28;20096;-67
2022/09/26 00:36:32;;;;;;;12.07;8.75;;;12.80;85.20;;;11.36;100.00;95444.50;4994778;28;20025;-67
2022/09/26 00:38:58;;;;;;;11.75;8.80;;;12.80;85.40;;;11.36;100.00;95444.50;5021878;28;20504;-68
2022/09/26 00:41:24;;;;;;;9.77;8.63;;;12.80;85.40;;;11.38;100.00;95447.72;5045902;28;20456;-67
2022/09/26 00:43:54;;;;;;;12.65;9.65;;;12.90;85.40;;;11.39;100.00;95433.53;5017607;28;20031;-66
2022/09/26 00:46:39;;;;;;;11.38;9.35;;;12.80;85.20;;;11.39;100.00;95433.53;4957752;28;20062;-66
2022/09/26 00:49:17;;;;;;;11.93;10.50;;;12.80;85.20;;;11.40;100.00;95434.34;4968041;28;20501;-66
2022/09/26 00:51:48;;;;;;;12.20;9.95;;;12.80;85.20;;;11.39;100.00;95430.91;5064585;28;20500;-66
2022/09/26 00:54:15;;;;;;;11.25;10.05;;;12.80;85.30;;;11.40;100.00;95429.88;5034150;28;20393;-66
2022/09/26 00:56:42;;;;;;;11.65;9.85;;;12.80;85.20;;;11.40;100.00;95418.56;4984485;28;20039;-67
2022/09/26 00:59:21;;;;;;;12.30;10.75;;;12.80;85.20;;;11.42;100.00;95416.50;4925940;28;20149;-67
2022/09/26 01:01:47;;;;;;;12.68;11.07;;;12.90;85.20;;;11.41;100.00;95414.91;4961710;28;20039;-66
2022/09/26 01:04:13;;;;;;;13.75;11.93;;;12.90;84.90;;;11.37;100.00;95403.97;4953263;28;20035;-67
2022/09/26 01:06:39;;;;;;;12.85;10.80;;;12.90;85.00;;;11.45;100.00;95410.81;4972205;28;20468;-66
2022/09/26 01:09:08;;;;;;;12.82;10.93;;;13.00;84.80;;;11.46;100.00;95412.44;5034721;28;20031;-66
2022/09/26 01:11:35;;;;;;;14.02;10.82;;;13.00;84.80;;;11.48;100.00;95410.41;5017924;28;20044;-66
2022/09/26 01:14:01;;;;;;;11.93;10.73;;;13.00;84.60;;;11.47;100.00;95399.06;5050721;28;20116;-66
2022/09/26 01:16:26;;;;;;;12.60;10.80;;;13.00;84.50;;;11.49;100.00;95407.53;5001636;28;20480;-67
2022/09/26 01:18:52;;;;;;;13.05;11.23;;;13.00;84.40;;;11.48;100.00;95408.56;4950634;28;20506;-66
2022/09/26 01:21:49;;;;;;;18.70;11.10;;;13.00;84.50;;;11.48;100.00;95413.84;5034809;28;20035;-67
2022/09/26 01:24:32;;;;;;;13.07;11.73;;;13.00;84.50;;;11.45;100.00;95406.38;5014199;28;20096;-66
2022/09/26 01:27:42;;;;;;;12.95;11.55;;;12.90;84.60;;;11.44;100.00;95403.94;5067245;28;20033;-66
2022/09/26 01:30:18;;;;;;;13.10;11.68;;;12.90;84.70;;;11.41;100.00;95399.91;4981435;28;20065;-67
2022/09/26 01:33:02;;;;;;;14.55;12.57;;;12.80;84.80;;;11.40;100.00;95408.81;5008576;28;20134;-66
2022/09/26 01:35:53;;;;;;;14.20;12.40;;;12.80;84.90;;;11.39;100.00;95407.22;4980513;28;20038;-66
2022/09/26 01:38:47;;;;;;;;;;;12.80;84.90;;;11.36;100.00;95407.63;5065457;28;20041;-67
2022/09/26 01:41:31;;;;;;;13.73;12.25;;;12.80;85.00;;;11.34;100.00;95404.41;4986898;28;19925;-67
2022/09/26 01:44:31;;;;;;;14.95;12.10;;;12.70;85.20;;;11.31;100.00;95399.53;4992087;28;20117;-67
2022/09/26 01:47:16;;;;;;;14.32;12.77;;;12.70;85.30;;;11.28;100.00;95394.69;4949526;28;20062;-66
2022/09/26 01:50:19;;;;;;;17.05;12.95;;;12.70;85.60;;;11.26;100.00;95394.09;4950671;28;20065;-66
2022/09/26 01:52:54;;;;;;;16.02;13.10;;;12.60;85.80;;;11.23;100.00;95394.53;4972078;28;20051;-66
2022/09/26 01:55:45;;;;;;;14.95;13.35;;;12.70;85.80;;;11.21;100.00;95389.47;5009185;28;20439;-66
2022/09/26 01:58:24;;;;;;;;;;;12.60;86.00;;;11.20;100.00;95398.38;5029054;28;20047;-67
2022/09/26 02:00:49;;;;;;;13.90;12.43;;;12.60;85.90;;;11.18;100.00;95389.09;4966077;28;19918;-66
2022/09/26 02:03:18;;;;;;;17.77;12.80;;;12.60;86.00;;;11.18;100.00;95395.16;4956963;28;20498;-67
2022/09/26 02:06:02;;;;;;;14.88;13.38;;;12.60;85.90;;;11.18;100.00;95394.34;4998870;28;20510;-67
2022/09/26 02:08:32;;;;;;;15.13;12.55;;;12.60;86.00;;;11.20;100.00;95392.31;4965503;28;20164;-66
2022/09/26 02:11:11;;;;;;;15.98;12.50;;;12.60;86.00;;;11.20;100.00;95398.38;4962678;28;20043;-66
2022/09/26 02:13:55;;;;;;;14.63;12.60;;;12.60;85.90;;;11.22;100.00;95390.28;4992556;28;20037;-66
2022/09/26 02:16:28;;;;;;;15.70;12.60;;;12.60;85.80;;;11.20;100.00;95387.06;4968512;28;20403;-67
2022/09/26 02:19:01;;;;;;;15.57;12.27;;;12.60;85.70;;;11.21;100.00;95380.78;4955873;28;20055;-67
2022/09/26 02:21:27;;;;;;;16.30;13.32;;;12.60;85.80;;;11.19;100.00;95383.63;5025265;28;20088;-66
2022/09/26 02:23:53;;;;;;;16.00;13.32;;;12.60;85.60;;;11.18;100.00;95378.56;5004828;28;20488;-66
2022/09/26 02:26:19;;;;;;;15.48;13.40;;;12.60;85.80;;;11.16;100.00;95377.97;4953963;28;20505;-66
2022/09/26 02:28:45;;;;;;;16.23;13.73;;;12.60;85.90;;;11.16;100.00;95375.34;5020568;28;20029;-66
2022/09/26 02:31:12;;;;;;;14.70;12.98;;;12.60;85.70;;;11.14;100.00;95386.06;5032201;28;20120;-66
2022/09/26 02:33:38;;;;;;;21.33;18.95;;;12.60;85.80;;;11.15;100.00;95378.97;4934179;28;20027;-66
2022/09/26 02:36:05;;;;;;;19.83;15.48;;;12.60;85.70;;;11.12;100.00;95377.59;5034305;28;20032;-67
2022/09/26 02:38:31;;;;;;;16.35;14.40;;;12.60;85.90;;;11.14;100.00;95380.81;4999954;28;20038;-66
2022/09/26 02:41:27;;;;;;;16.98;13.93;;;12.60;85.80;;;11.15;100.00;95374.53;5033064;28;20123;-67
2022/09/26 02:44:21;;;;;;;16.08;13.10;;;12.60;85.60;;;11.17;100.00;95377.75;4980960;28;20039;-66
2022/09/26 02:47:13;;;;;;;15.40;13.63;;;12.70;85.50;;;11.17;100.00;95374.31;4964462;28;20035;-66
2022/09/26 02:49:46;;;;;;;16.45;14.00;;;12.60;85.30;;;11.14;100.00;95377.38;5016968;28;20115;-67
2022/09/26 02:52:34;;;;;;;15.50;13.75;;;12.60;85.40;;;11.15;100.00;95376.34;4976918;28;20126;-66
2022/09/26 02:55:20;;;;;;;15.48;13.57;;;12.60;85.30;;;11.16;100.00;95377.97;4962464;28;20470;-66
2022/09/26 02:58:16;;;;;;;16.23;13.70;;;12.70;85.20;;;11.15;100.00;95373.72;5030098;28;20036;-65
2022/09/26 03:01:20;;;;;;;15.32;12.50;;;12.60;85.20;;;11.15;100.00;95384.25;5014535;28;20033;-65
2022/09/26 03:04:05;;;;;;;15.55;13.57;;;12.60;85.20;;;11.12;100.00;95379.41;4999055;28;20533;-67
2022/09/26 03:06:36;;;;;;;17.67;14.93;;;12.60;85.30;;;11.14;100.00;95382.63;4968961;28;20452;-66
2022/09/26 03:09:02;;;;;;;15.68;13.82;;;12.60;85.40;;;11.14;100.00;95377.38;4965108;28;20041;-66
2022/09/26 03:11:28;;;;;;;16.63;14.70;;;12.60;85.30;;;11.14;100.00;95377.38;5045615;28;20060;-66
2022/09/26 03:13:53;;;;;;;17.98;15.13;;;12.60;85.50;;;11.16;100.00;95380.59;5053033;28;20618;-67
2022/09/26 03:16:20;;;;;;;30.90;27.08;;;12.70;85.40;;;11.17;100.00;95376.94;5018060;28;20035;-66
2022/09/26 03:19:07;;;;;;;18.08;15.93;;;12.70;85.10;;;11.19;100.00;95374.91;5032768;28;20041;-66
2022/09/26 03:21:33;;;;;;;29.50;25.33;;;12.60;85.10;;;11.18;100.00;95368.03;5007581;28;20057;-66
2022/09/26 03:23:59;;;;;;;21.80;17.10;;;12.70;85.10;;;11.19;100.00;95365.19;5035328;28;20153;-66
2022/09/26 03:26:26;;;;;;;18.42;15.20;;;12.70;85.10;;;11.19;100.00;95369.66;5027412;28;20571;-66
2022/09/26 03:28:52;;;;;;;20.10;16.85;;;12.70;85.10;;;11.22;100.00;95369.22;5060342;28;20028;-66
2022/09/26 03:31:22;;;;;;;18.42;16.08;;;12.80;85.00;;;11.23;100.00;95371.63;4960706;28;20039;-66
2022/09/26 03:33:48;;;;;;;22.85;17.90;;;12.80;84.70;;;11.23;100.00;95366.38;4967195;28;20035;-67
2022/09/26 03:36:13;;;;;;;26.30;22.00;;;12.80;84.70;;;11.22;100.00;95369.22;4975460;28;20041;-69
2022/09/26 03:38:39;;;;;;;17.45;15.52;;;12.80;84.80;;;11.23;100.00;95376.09;5029734;28;20531;-69
2022/09/26 03:41:06;;;;;;;16.63;14.73;;;12.70;84.70;;;11.23;100.00;95355.84;4994382;28;20058;-66
2022/09/26 03:43:31;;;;;;;20.17;14.43;;;12.80;84.80;;;11.26;100.00;95363.31;5033343;28;20042;-66
2022/09/26 03:46:05;;;;;;;16.17;14.45;;;12.80;84.80;;;11.28;100.00;95357.84;4967883;28;20498;-67
2022/09/26 03:48:31;;;;;;;17.58;14.23;;;12.80;84.80;;;11.28;100.00;95353.38;4979447;28;20038;-66
2022/09/26 03:51:26;;;;;;;16.65;14.95;;;12.90;84.70;;;11.32;100.00;95356.41;5001234;28;21999;-66
2022/09/26 03:53:52;;;;;;;15.93;14.15;;;12.80;84.50;;;11.31;100.00;95352.97;5033722;28;20036;-65
2022/09/26 03:56:19;;;;;;;17.80;14.52;;;12.80;84.60;;;11.33;100.00;95358.03;5018605;28;20679;-65
2022/09/26 03:58:45;;;;;;;16.77;14.77;;;12.90;84.50;;;11.32;100.00;95349.34;4969526;28;20035;-65
2022/09/26 04:01:13;;;;;;;18.15;16.08;;;12.90;84.50;;;11.31;100.00;95345.06;5003758;28;20042;-65
2022/09/26 04:03:41;;;;;;;18.17;15.38;;;12.80;84.50;;;11.30;100.00;95345.28;5002863;28;20561;-65
2022/09/26 04:06:08;;;;;;;17.15;15.20;;;12.80;84.60;;;11.29;100.00;95343.66;5004222;28;20063;-65
2022/09/26 04:08:37;;;;;;;20.77;15.65;;;12.70;84.70;;;11.26;100.00;95330.91;5032466;28;20040;-66
2022/09/26 04:11:09;;;;;;;17.75;15.90;;;12.70;84.90;;;11.27;100.00;95332.53;5066968;28;20044;-65
2022/09/26 04:13:34;;;;;;;24.60;19.48;;;12.70;85.00;;;11.26;100.00;95325.66;4979103;28;20513;-65
2022/09/26 04:16:00;;;;;;;34.67;24.83;;;12.70;85.00;;;11.26;100.00;95328.28;5018890;28;20042;-66
2022/09/26 04:18:27;;;;;;;30.48;23.13;;;12.70;84.90;;;11.25;100.00;95324.84;5063981;28;20034;-65
2022/09/26 04:21:01;;;;;;;28.83;22.45;;;12.70;85.10;;;11.26;100.00;95323.03;5017073;28;20500;-66
2022/09/26 04:23:28;;;;;;;22.77;18.80;;;12.80;85.10;;;11.25;100.00;95316.16;5056025;28;20043;-65
2022/09/26 04:25:54;;;;;;;22.45;18.33;;;12.70;84.90;;;11.24;100.00;95319.81;5042598;28;20031;-66
2022/09/26 04:28:20;;;;;;;22.38;16.92;;;12.70;85.30;;;11.24;100.00;95314.53;4966854;28;20096;-66
2022/09/26 04:30:46;;;;;;;20.48;17.40;;;12.80;85.20;;;11.23;100.00;95318.19;4949069;28;20032;-67
2022/09/26 04:33:11;;;;;;;21.98;18.92;;;12.70;85.10;;;11.23;100.00;95318.19;5006388;28;20535;-66
2022/09/26 04:35:37;;;;;;;19.77;17.67;;;12.70;85.30;;;11.22;100.00;95311.31;5053576;28;20442;-66
2022/09/26 04:38:04;;;;;;;24.63;21.60;;;12.80;85.20;;;11.23;100.00;95316.34;5067698;28;20055;-68
2022/09/26 04:40:30;;;;;;;39.42;29.25;;;12.80;85.10;;;11.23;100.00;95312.91;4969815;28;20037;-67
2022/09/26 04:42:57;;;;;;;22.23;19.48;;;12.80;85.10;;;11.23;100.00;95318.19;4964742;28;20030;-68
2022/09/26 04:45:23;;;;;;;18.92;16.70;;;12.70;85.20;;;11.24;100.00;95314.53;4949587;28;20038;-67
2022/09/26 04:47:49;;;;;;;19.67;17.13;;;12.80;85.10;;;11.23;100.00;95313.72;4967669;28;20031;-66
2022/09/26 04:50:15;;;;;;;19.75;16.60;;;12.80;85.00;;;11.25;100.00;95306.41;5053363;28;20143;-66
2022/09/26 04:52:40;;;;;;;21.52;16.90;;;12.90;85.00;;;11.26;100.00;95309.88;5021273;28;20039;-66
2022/09/26 04:55:07;;;;;;;19.27;16.52;;;12.80;84.80;;;11.26;100.00;95307.22;4966909;28;20035;-68
2022/09/26 04:57:33;;;;;;;18.65;15.98;;;12.90;85.10;;;11.26;100.00;95309.88;5053787;28;20039;-65
2022/09/26 04:59:59;;;;;;;20.10;17.70;;;12.80;84.90;;;11.26;100.00;95317.75;4982128;28;20126;-66
2022/09/26 05:02:24;;;;;;;20.80;16.52;;;12.70;84.90;;;11.25;100.00;95311.69;5024506;28;20505;-66
2022/09/26 05:04:50;;;;;;;21.13;17.48;;;12.80;85.00;;;11.24;100.00;95315.34;5056388;28;20028;-67
2022/09/26 05:07:17;;;;;;;22.40;17.27;;;12.80;85.00;;;11.24;100.00;95312.72;5018659;28;20096;-68
2022/09/26 05:09:43;;;;;;;19.55;16.88;;;12.80;84.80;;;11.25;100.00;95308.25;4968340;28;20093;-68
2022/09/26 05:12:09;;;;;;;18.77;15.80;;;12.80;84.50;;;11.21;100.00;95310.50;4967212;28;20124;-70
2022/09/26 05:14:35;;;;;;;21.58;16.55;;;12.70;84.70;;;11.22;100.00;95306.03;4960195;28;20074;-67
2022/09/26 05:17:01;;;;;;;22.45;19.30;;;12.80;84.70;;;11.23;100.00;95307.66;4966712;28;20395;-66
2022/09/26 05:19:27;;;;;;;20.88;17.73;;;12.80;84.90;;;11.26;100.00;95313.31;5006936;28;20443;-66
2022/09/26 05:21:53;;;;;;;22.08;16.80;;;12.80;84.90;;;11.26;100.00;95318.56;4970207;28;20046;-66
2022/09/26 05:27:04;;;;;;;17.45;14.93;;;12.90;84.30;;;11.31;100.00;95307.38;4963815;28;20045;-66
2022/09/26 05:29:30;;;;;;;15.70;13.90;;;12.80;83.50;;;11.33;100.00;95315.91;4964679;28;20039;-67
2022/09/26 05:31:55;;;;;;;17.73;14.48;;;12.90;84.00;;;11.34;100.00;95309.63;4952465;28;20046;-66
2022/09/26 05:34:23;;;;;;;17.95;13.88;;;13.00;84.20;;;11.38;100.00;95320.53;4981519;28;20051;-64
2022/09/26 05:36:50;;;;;;;16.83;13.75;;;13.00;84.00;;;11.39;100.00;95320.31;4965139;28;20994;-68
2022/09/26 05:42:01;;;;;;;40.25;34.45;;;13.00;83.90;;;11.40;100.00;95319.31;4992519;28;20047;-67
2022/09/26 05:44:27;;;;;;;17.55;14.93;;;13.00;83.70;;;11.40;100.00;95316.66;5007785;28;20180;-64
2022/09/26 05:46:56;;;;;;;25.08;22.15;;;12.90;82.70;;;11.38;100.00;95316.06;4972508;28;20082;-66
2022/09/26 05:49:21;;;;;;;15.57;13.98;;;13.00;83.20;;;11.40;100.00;95316.66;5030453;28;20050;-68
2022/09/26 05:51:47;;;;;;;15.50;12.57;;;13.00;83.10;;;11.40;100.00;95316.66;4984315;28;20032;-67
2022/09/26 05:54:13;;;;;;;14.93;12.07;;;13.00;83.10;;;11.39;100.00;95322.16;5006425;28;20120;-62
2022/09/26 05:56:39;;;;;;;13.85;11.93;;;13.00;82.70;;;11.37;100.00;95309.19;5062112;28;20126;-65
2022/09/26 05:59:05;;;;;;;14.32;11.55;;;13.00;82.70;;;11.40;100.00;95314.03;5036618;28;20050;-65
2022/09/26 06:01:32;;;;;;;14.15;12.48;;;13.00;82.60;;;11.40;100.00;95319.31;5055351;28;20033;-62
2022/09/26 06:03:57;;;;;;;15.43;12.60;;;13.00;82.60;;;11.40;100.00;95329.84;4965730;28;20039;-66
2022/09/26 06:06:23;;;;;;;16.23;12.90;;;13.00;83.10;;;11.39;100.00;95328.22;4996745;28;20111;-68
2022/09/26 06:08:49;;;;;;;15.38;12.70;;;13.00;83.10;;;11.38;100.00;95331.88;5008340;28;20506;-65
2022/09/26 06:11:17;;;;;;;16.42;13.55;;;13.00;83.10;;;11.37;100.00;95330.25;5012210;28;20518;-66
2022/09/26 06:13:45;;;;;;;15.63;12.73;;;13.00;83.20;;;11.37;100.00;95327.63;4999219;28;20122;-65
2022/09/26 06:16:19;;;;;;;15.65;11.90;;;13.00;83.00;;;11.35;100.00;95325.22;5063544;28;20040;-65
2022/09/26 06:18:46;;;;;;;15.50;13.02;;;12.90;82.90;;;11.37;100.00;95329.47;4980091;28;20027;-68
2022/09/26 06:21:13;;;;;;;15.13;12.15;;;13.00;83.10;;;11.37;100.00;95325.00;5051417;28;20043;-66
2022/09/26 06:23:39;;;;;;;16.40;12.45;;;13.00;82.90;;;11.37;100.00;95327.63;4977894;28;20537;-65
2022/09/26 06:26:07;;;;;;;16.63;12.60;;;13.00;83.00;;;11.39;100.00;95328.22;4962645;28;20563;-69
2022/09/26 06:28:36;;;;;;;14.30;12.48;;;13.00;82.60;;;11.39;100.00;95312.41;4974509;28;20088;-68
2022/09/26 06:31:15;;;;;;;13.75;12.20;;;13.10;82.70;;;11.42;100.00;95317.25;4989742;28;20042;-70
2022/09/26 06:33:41;;;;;;;14.23;11.32;;;13.10;82.70;;;11.45;100.00;95316.81;5003065;28;20037;-68
2022/09/26 06:36:08;;;;;;;14.07;12.40;;;13.10;82.70;;;11.47;100.00;95313.97;4984589;28;20031;-70
2022/09/26 06:38:34;;;;;;;14.00;11.45;;;13.20;82.50;;;11.52;100.00;95312.31;4977639;28;20085;-61
2022/09/26 06:41:00;;;;;;;15.95;11.82;;;13.40;81.80;;;11.62;100.00;95320.56;4982638;28;20031;-70
2022/09/26 06:43:26;;;;;;;12.93;10.77;;;13.70;80.90;;;11.73;100.00;95312.97;5032328;28;20108;-71
2022/09/26 06:45:52;;;;;;;11.00;9.65;;;14.00;80.10;;;11.91;100.00;95313.06;4964307;28;20037;-70
2022/09/26 06:48:46;;;;;;;11.55;9.07;;;14.20;79.80;;;12.08;100.00;95306.22;4969729;28;20039;-69
2022/09/26 06:51:15;;;;;;;11.07;8.48;;;14.20;78.10;;;12.17;100.00;95304.91;4963965;28;20053;-64
2022/09/26 06:53:44;;;;;;;11.10;8.63;;;14.20;78.50;;;12.25;100.00;95296.72;4969288;28;20480;-67
2022/09/26 06:56:10;;;;;;;10.75;8.07;;;14.30;77.90;;;12.32;100.00;95296.66;4962047;28;21807;-65
2022/09/26 06:58:38;;;;;;;10.02;8.05;;;14.20;76.40;;;12.36;100.00;95291.72;4952976;28;20039;-70
2022/09/26 07:01:05;;;;;;;13.00;8.88;;;14.30;77.00;;;12.43;100.00;95297.72;4938600;28;20023;-67
2022/09/26 07:03:31;;;;;;;11.70;7.53;;;14.40;76.50;;;12.47;100.00;95298.94;4952757;28;20026;-67
2022/09/26 07:05:57;;;;;;;13.55;7.65;;;14.30;76.10;;;12.49;100.00;95297.69;4969271;28;20092;-68
2022/09/26 07:08:24;;;;;;;9.45;8.00;;;14.40;75.90;;;12.56;100.00;95302.88;4978702;28;20506;-67
2022/09/26 07:10:50;;;;;;;10.75;7.72;;;14.50;76.40;;;12.61;100.00;95305.66;4957433;28;20114;-66
2022/09/26 07:13:16;;;;;;;46.05;12.98;;;14.60;75.90;;;12.65;100.00;95301.53;4965945;28;20097;-67
2022/09/26 07:15:44;;;;;;;15.52;9.32;;;14.70;75.70;;;12.73;100.00;95298.63;4965832;28;20035;-68
2022/09/26 07:18:09;;;;;;;10.57;8.30;;;14.70;75.60;;;12.76;100.00;95303.44;4946052;28;20031;-65
2022/09/26 07:20:39;;;;;;;10.30;8.10;;;14.70;75.30;;;12.81;100.00;95300.94;4966093;28;20521;-66
2022/09/26 07:23:07;;;;;;;10.98;9.07;;;14.80;75.40;;;12.84;100.00;95297.84;4955534;28;20039;-66
2022/09/26 07:25:33;;;;;;;13.00;9.70;;;14.70;75.00;;;12.85;100.00;95301.31;4966858;28;20039;-65
2022/09/26 07:27:59;;;;;;;11.30;8.88;;;14.90;74.50;;;12.88;100.00;95295.56;4954338;28;20108;-62
2022/09/26 07:30:24;;;;;;;10.82;8.90;;;14.90;74.50;;;12.93;100.00;95293.09;4971671;28;20624;-68
2022/09/26 07:32:50;;;;;;;9.18;7.25;;;14.90;74.80;;;13.00;100.00;95298.28;4948215;28;20035;-68
2022/09/26 07:35:16;;;;;;;12.95;9.85;;;14.90;73.80;;;13.01;100.00;95302.53;4987795;28;20055;-66
2022/09/26 07:37:43;;;;;;;12.38;9.27;;;14.80;74.40;;;13.04;100.00;95296.81;4948893;28;20065;-67
2022/09/26 07:40:09;;;;;;;14.55;9.98;;;14.90;74.70;;;13.04;100.00;95299.44;5030241;28;20042;-65
2022/09/26 07:42:37;;;;;;;11.73;9.30;;;14.80;74.40;;;12.98;100.00;95290.59;4964945;28;20224;-66
2022/09/26 07:45:04;;;;;;;13.40;9.50;;;14.70;74.50;;;12.95;100.00;95295.50;4991635;28;20040;-68
2022/09/26 07:50:18;;;;;;;11.48;8.50;;;14.60;74.30;;;12.89;100.00;95299.81;4963558;28;20042;-68
2022/09/26 07:52:45;;;;;;;10.48;8.10;;;14.70;74.40;;;12.89;100.00;95303.25;4952399;28;20352;-65
2022/09/26 07:55:16;;;;;;;11.68;8.55;;;14.90;73.90;;;13.00;100.00;95295.63;4947528;28;20027;-69
2022/09/26 07:57:42;;;;;;;10.90;7.60;;;16.30;69.30;;;13.25;100.00;95296.34;4949967;28;20195;-62
2022/09/26 08:00:11;;;;;;;12.30;7.63;;;17.60;66.00;;;13.53;100.00;95293.06;4986463;28;20089;-61
2022/09/26 08:02:39;;;;;;;9.80;7.00;;;18.10;63.80;;;13.88;100.00;95295.78;4979105;28;20024;-66
2022/09/26 08:05:05;;;;;;;8.23;6.65;;;19.10;60.00;;;14.32;100.00;95306.81;5007250;28;20031;-68
2022/09/26 08:07:32;;;;;;;10.55;7.03;;;19.80;56.80;;;14.80;100.00;95303.88;4974090;28;20125;-68
2022/09/26 08:09:58;;;;;;;10.10;6.93;;;20.40;55.30;;;15.18;100.00;95298.00;4964165;28;20055;-68
2022/09/26 08:12:24;;;;;;;7.80;6.10;;;19.50;54.80;;;15.44;100.00;95293.16;4953350;28;20070;-67
2022/09/26 08:14:51;;;;;;;11.40;6.15;;;19.50;55.80;;;15.69;100.00;95296.25;4967543;28;20521;-66
2022/09/26 08:17:18;;;;;;;9.40;5.88;;;19.60;55.10;;;15.88;100.00;95300.28;4964253;28;20134;-64
2022/09/26 08:19:43;;;;;;;10.07;5.55;;;19.10;56.60;;;16.00;100.00;95302.03;4971791;28;20042;-70
2022/09/26 08:22:10;;;;;;;8.90;5.25;;;18.80;57.30;;;15.98;100.00;95288.22;4968173;28;20039;-70
2022/09/26 08:24:36;;;;;;;6.60;4.43;;;18.40;58.40;;;15.95;98.73;95296.66;4964914;28;20108;-68
2022/09/26 08:27:02;;;;;;;9.43;4.88;;;18.10;58.40;;;15.86;98.11;95291.78;4947422;28;20574;-64
2022/09/26 08:29:30;;;;;;;6.88;5.25;;;17.90;59.80;;;15.75;97.76;95290.00;4978689;28;20502;-68
2022/09/26 08:31:57;;;;;;;8.63;5.10;;;17.60;60.60;;;15.66;98.23;95294.09;5049235;28;20167;-67
2022/09/26 08:34:23;;;;;;;8.63;5.13;;;17.40;61.50;;;15.57;98.11;95296.28;5010305;28;20051;-62
2022/09/26 08:36:51;;;;;;;5.85;4.63;;;17.30;61.90;;;15.53;98.94;95292.53;4973073;28;20659;-67
2022/09/26 08:39:17;;;;;;;7.38;4.45;;;17.80;62.30;;;15.52;97.50;95290.09;4977528;28;20062;-70
2022/09/26 08:42:14;;;;;;;6.07;4.30;;;17.70;60.20;;;15.55;92.33;95289.63;5007103;28;20029;-62
2022/09/26 08:48:05;;;;;;;5.85;3.58;;;19.30;55.60;;;16.07;95.45;95276.16;4977815;28;20108;-67
2022/09/26 08:50:44;;;;;;;5.03;3.20;;;19.00;57.60;;;16.20;92.63;95271.31;4950305;28;20486;-62
2022/09/26 08:53:14;;;;;;;6.00;4.13;;;18.90;57.30;;;16.30;94.95;95262.72;4954286;28;20053;-71
2022/09/26 08:55:42;;;;;;;6.07;3.55;;;18.70;57.80;;;16.34;93.51;95261.16;5007715;28;20036;-68
2022/09/26 08:58:17;;;;;;;5.07;3.53;;;18.70;57.50;;;16.42;90.78;95263.38;4954906;28;20034;-69
2022/09/26 09:00:43;;;;;;;3.03;2.67;;;18.90;57.50;;;16.47;91.38;95255.47;4972936;28;20042;-66
2022/09/26 09:03:32;;;;;;;4.40;3.35;;;19.40;54.00;;;16.95;86.41;95245.97;4940830;28;20038;-67
2022/09/26 09:06:11;;;;;;;5.03;3.33;;;21.00;51.00;;;17.24;81.42;95232.47;4954552;28;20118;-67
2022/09/26 09:08:42;;;;;;;4.03;2.60;;;20.30;48.60;;;17.30;85.33;95226.16;4928850;28;20088;-68
2022/09/26 09:11:36;;;;;;;3.85;2.63;;;20.60;50.00;;;17.61;82.26;95235.97;4981607;28;20047;-70
2022/09/26 09:14:24;;;;;;;3.75;2.38;;;21.20;49.50;;;18.13;79.19;95235.31;4972458;28;20065;-67
2022/09/26 09:17:06;;;;;;;4.68;3.00;;;22.10;47.00;;;18.54;76.35;95230.19;4977251;28;20042;-70
2022/09/26 09:20:01;;;;;;;4.53;3.17;;;22.40;45.70;;;19.00;76.61;95227.72;4968491;28;20034;-69
2022/09/26 09:22:55;;;;;;;5.22;3.30;;;22.90;45.30;;;19.48;74.37;95229.97;4954862;28;20061;-68
2022/09/26 09:25:27;;;;;;;6.78;3.38;;;23.50;43.80;;;19.61;77.88;95231.31;4963443;28;20035;-65
2022/09/26 09:28:28;;;;;;;3.72;3.13;;;23.40;43.90;;;19.97;72.16;95226.78;4944205;28;20114;-67
2022/09/26 09:31:10;;;;;;;3.45;2.70;;;23.80;43.60;;;20.11;71.57;95230.47;4976049;28;20430;-67
2022/09/26 09:33:46;;;;;;;4.00;3.22;;;23.50;43.50;;;20.10;71.39;95230.75;4965044;28;20043;-68
2022/09/26 09:36:15;;;;;;;4.55;2.85;;;23.10;44.40;;;20.18;75.33;95222.19;4956194;28;20034;-69
2022/09/26 09:38:44;;;;;;;3.13;2.70;;;23.70;43.10;;;20.08;72.56;95223.00;4947341;28;20031;-70
2022/09/26 09:41:27;;;;;;;3.13;2.45;;;22.40;43.80;;;19.93;68.77;95220.38;4931417;28;20035;-70
2022/09/26 09:43:55;;;;;;;2.90;2.60;;;22.90;43.60;;;19.84;72.33;95219.28;4980259;28;20053;-65
2022/09/26 09:46:49;;;;;;;4.03;2.30;;;22.60;45.20;;;19.93;69.80;95220.38;4982518;28;20038;-66
2022/09/26 09:49:20;;;;;;;3.40;2.42;;;23.40;44.70;;;20.10;71.25;95210.19;4958717;28;20038;-68
2022/09/26 09:52:14;;;;;;;3.15;2.55;;;23.80;43.30;;;20.32;67.36;95207.19;4948821;28;20034;-68
2022/09/26 09:54:54;;;;;;;3.72;2.33;;;24.10;41.80;;;20.49;68.04;95214.91;5004124;28;20115;-66
2022/09/26 09:57:38;;;;;;;3.58;2.40;;;24.10;41.90;;;20.56;69.68;95212.75;4943989;28;20030;-66
2022/09/26 10:00:33;;;;;;;2.88;2.33;;;24.10;43.90;;;21.03;71.67;95209.59;5013490;28;20080;-69
2022/09/26 10:03:03;;;;;;;3.67;1.63;;;27.40;36.60;;;21.78;71.56;95200.53;4962139;28;20038;-67
2022/09/26 10:05:44;;;;;;;2.38;1.63;;;27.40;36.10;;;22.06;61.59;95198.97;4982099;28;20057;-68
2022/09/26 10:08:21;;;;;;;2.50;1.50;;;27.30;35.50;;;22.71;61.34;95191.28;4962055;28;20035;-69
2022/09/26 10:11:12;;;;;;;2.88;1.65;;;29.60;31.80;;;22.85;57.61;95198.34;4961932;28;20575;-67
2022/09/26 10:13:42;;;;;;;2.42;2.03;;;28.00;33.30;;;22.57;60.08;95191.97;4974178;28;20043;-67
2022/09/26 10:16:10;;;;;;;2.67;1.73;;;26.60;35.30;;;23.02;62.49;95186.31;4965664;28;20535;-68
2022/09/26 10:19:07;;;;;;;3.20;1.40;;;30.40;31.40;;;23.98;55.09;95175.97;4944161;28;20046;-67
2022/09/26 10:21:41;;;;;;;3.60;1.83;;;32.70;27.10;;;24.92;56.99;95176.34;4950559;28;20034;-68
2022/09/26 10:24:22;;;;;;;2.63;1.55;;;34.40;25.50;;;25.72;52.06;95160.53;4918613;28;20027;-67
2022/09/26 10:26:49;;;;;;;2.33;1.60;;;34.80;25.00;;;26.16;57.62;95167.75;4948864;28;20132;-68
2022/09/26 10:29:23;;;;;;;2.40;1.30;;;33.20;25.80;;;26.48;48.44;95161.25;4950437;28;20042;-67
2022/09/26 10:31:54;;;;;;;2.53;1.48;;;32.20;26.80;;;26.06;48.14;95152.66;5026374;28;20074;-68
2022/09/26 10:34:23;;;;;;;3.33;1.50;;;29.00;30.50;;;25.43;50.24;95156.38;4997037;28;20512;-67
2022/09/26 10:36:49;;;;;;;3.07;1.70;;;27.50;32.30;;;24.64;52.65;95158.63;4959390;28;20064;-67